createdAt,value
2018-09-22T00:01:04.808Z,85.73
2018-09-22T00:03:31.966Z,86.60
2018-09-22T00:05:59.154Z,86.02
2018-09-22T00:08:26.276Z,86.18
2018-09-22T00:10:53.471Z,86.22
2018-09-22T00:13:20.637Z,86.34
2018-09-22T00:15:47.838Z,86.63
2018-09-22T00:18:15.072Z,86.75
2018-09-22T00:20:43.067Z,86.44
2018-09-22T00:23:10.248Z,86.53
2018-09-22T00:25:37.463Z,86.87
2018-09-22T00:28:04.745Z,87.03
2018-09-22T00:30:31.945Z,87.83
2018-09-22T00:32:59.392Z,87.80
2018-09-22T00:35:26.616Z,87.03
2018-09-22T00:37:53.777Z,86.38
2018-09-22T00:40:20.920Z,86.61
2018-09-22T00:42:48.105Z,86.34
2018-09-22T00:45:15.284Z,85.85
2018-09-22T00:47:42.455Z,85.74
2018-09-22T00:50:09.649Z,85.75
2018-09-22T00:52:36.788Z,85.73
2018-09-22T00:55:04.536Z,85.85
2018-09-22T00:57:31.700Z,85.40
2018-09-22T00:59:58.860Z,85.59
2018-09-22T01:02:26.076Z,86.20
2018-09-22T01:04:53.229Z,86.48
2018-09-22T01:07:20.385Z,86.92
2018-09-22T01:09:47.592Z,86.82
2018-09-22T01:12:14.773Z,86.83
2018-09-22T01:14:41.959Z,86.32
2018-09-22T01:17:09.177Z,85.42
2018-09-22T01:19:36.396Z,86.22
2018-09-22T01:22:03.585Z,85.63
2018-09-22T01:24:30.756Z,85.63
2018-09-22T01:26:57.924Z,85.73
2018-09-22T01:29:25.118Z,85.66
2018-09-22T01:31:52.298Z,85.97
2018-09-22T01:34:19.484Z,86.21
2018-09-22T01:36:46.715Z,86.36
2018-09-22T01:39:13.936Z,85.98
2018-09-22T01:41:41.589Z,86.35
2018-09-22T01:44:08.776Z,86.40
2018-09-22T01:46:35.960Z,86.82
2018-09-22T01:49:03.084Z,86.69
2018-09-22T01:51:30.644Z,86.65
2018-09-22T01:53:57.855Z,86.13
2018-09-22T01:56:25.065Z,85.58
2018-09-22T01:58:52.177Z,85.41
2018-09-22T02:01:19.309Z,84.79
2018-09-22T02:03:46.445Z,84.94
2018-09-22T02:06:13.629Z,84.94
2018-09-22T02:08:40.776Z,84.69
2018-09-22T02:11:07.972Z,84.54
2018-09-22T02:13:35.210Z,84.95
2018-09-22T02:16:02.396Z,85.11
2018-09-22T02:18:29.545Z,85.52
2018-09-22T02:20:56.720Z,85.43
2018-09-22T02:23:23.856Z,84.97
2018-09-22T02:25:51.020Z,85.33
2018-09-22T02:28:18.214Z,85.58
2018-09-22T02:30:45.399Z,85.65
2018-09-22T02:33:12.653Z,85.94
2018-09-22T02:35:39.863Z,85.91
2018-09-22T02:38:07.040Z,86.29
2018-09-22T02:40:34.217Z,86.28
2018-09-22T02:43:01.405Z,86.68
2018-09-22T02:45:28.548Z,86.93
2018-09-22T02:47:55.713Z,87.11
2018-09-22T02:50:22.868Z,87.04
2018-09-22T02:52:50.146Z,86.67
2018-09-22T02:55:17.329Z,86.64
2018-09-22T02:57:44.467Z,86.55
2018-09-22T03:00:11.651Z,86.27
2018-09-22T03:02:38.800Z,86.84
2018-09-22T03:05:05.994Z,86.63
2018-09-22T03:07:33.204Z,86.74
2018-09-22T03:10:00.384Z,87.15
2018-09-22T03:12:27.567Z,87.19
2018-09-22T03:14:54.756Z,87.18
2018-09-22T03:17:21.950Z,87.01
2018-09-22T03:19:49.116Z,87.39
2018-09-22T03:22:16.224Z,87.81
2018-09-22T03:24:43.475Z,87.24
2018-09-22T03:27:10.683Z,87.95
2018-09-22T03:29:37.861Z,87.86
2018-09-22T03:32:05.119Z,87.48
2018-09-22T03:34:32.392Z,87.91
2018-09-22T03:36:59.528Z,87.58
2018-09-22T03:39:26.729Z,87.62
2018-09-22T03:41:53.841Z,88.07
2018-09-22T03:44:20.960Z,88.23
2018-09-22T03:46:48.131Z,88.10
2018-09-22T03:49:15.301Z,88.43
2018-09-22T03:51:42.493Z,87.96
2018-09-22T03:54:09.657Z,87.93
2018-09-22T03:56:36.804Z,88.12
2018-09-22T03:59:03.995Z,88.13
2018-09-22T04:01:31.172Z,87.88
2018-09-22T04:03:58.316Z,87.90
2018-09-22T04:06:25.495Z,87.68
2018-09-22T04:08:52.611Z,87.64
2018-09-22T04:11:19.732Z,88.17
2018-09-22T04:13:46.920Z,87.60
2018-09-22T04:16:14.034Z,87.81
2018-09-22T04:18:41.214Z,87.89
2018-09-22T04:21:08.460Z,88.13
2018-09-22T04:23:35.647Z,88.20
2018-09-22T04:26:02.861Z,88.20
2018-09-22T04:28:30.000Z,88.17
2018-09-22T04:30:57.166Z,88.09
2018-09-22T04:33:31.235Z,88.61
2018-09-22T04:35:58.324Z,88.29
2018-09-22T04:38:25.474Z,87.97
2018-09-22T04:40:52.630Z,88.03
2018-09-22T04:43:19.786Z,87.86
2018-09-22T04:45:46.956Z,88.61
2018-09-22T04:48:14.103Z,88.25
2018-09-22T04:50:41.248Z,88.32
2018-09-22T04:53:08.417Z,88.41
2018-09-22T04:55:35.576Z,87.73
2018-09-22T04:58:02.766Z,88.36
2018-09-22T05:00:29.904Z,87.97
2018-09-22T05:02:57.064Z,87.98
2018-09-22T05:05:24.212Z,87.62
2018-09-22T05:07:51.363Z,87.89
2018-09-22T05:10:18.568Z,88.04
2018-09-22T05:12:45.736Z,87.50
2018-09-22T05:15:12.943Z,87.67
2018-09-22T05:17:40.169Z,87.08
2018-09-22T05:20:07.333Z,87.25
2018-09-22T05:22:34.446Z,87.21
2018-09-22T05:25:01.746Z,86.84
2018-09-22T05:27:28.929Z,86.23
2018-09-22T05:29:56.107Z,86.43
2018-09-22T05:32:23.273Z,85.68
2018-09-22T05:34:50.476Z,86.07
2018-09-22T05:37:17.634Z,85.67
2018-09-22T05:39:44.807Z,85.64
2018-09-22T05:42:12.044Z,85.33
2018-09-22T05:44:39.236Z,84.87
2018-09-22T05:47:06.440Z,85.50
2018-09-22T05:49:33.552Z,85.29
2018-09-22T05:52:00.692Z,84.77
2018-09-22T05:54:27.973Z,85.52
2018-09-22T05:56:55.147Z,84.88
2018-09-22T05:59:22.269Z,84.78
2018-09-22T06:01:49.467Z,84.42
2018-09-22T06:04:16.631Z,84.70
2018-09-22T06:06:43.755Z,84.87
2018-09-22T06:09:10.906Z,84.87
2018-09-22T06:11:38.115Z,85.22
2018-09-22T06:14:05.357Z,84.55
2018-09-22T06:16:32.588Z,84.10
2018-09-22T06:18:59.763Z,83.71
2018-09-22T06:21:26.952Z,83.66
2018-09-22T06:23:54.195Z,84.10
2018-09-22T06:26:21.348Z,83.88
2018-09-22T06:28:48.597Z,83.79
2018-09-22T06:31:15.751Z,83.16
2018-09-22T06:33:42.924Z,83.01
2018-09-22T06:36:10.091Z,82.56
2018-09-22T06:38:37.201Z,82.84
2018-09-22T06:41:04.409Z,82.82
2018-09-22T06:43:31.599Z,81.69
2018-09-22T06:48:32.893Z,81.32
2018-09-22T06:51:00.156Z,80.69
2018-09-22T06:53:27.416Z,80.71
2018-09-22T06:55:54.611Z,79.40
2018-09-22T06:58:21.796Z,79.99
2018-09-22T07:00:48.970Z,79.42
2018-09-22T07:03:16.170Z,79.79
2018-09-22T07:05:43.324Z,80.73
2018-09-22T07:08:10.472Z,79.84
2018-09-22T07:10:37.628Z,79.22
2018-09-22T07:13:04.820Z,79.66
2018-09-22T07:15:31.989Z,78.89
2018-09-22T07:17:59.105Z,79.29
2018-09-22T07:20:26.285Z,78.47
2018-09-22T07:22:59.208Z,78.74
2018-09-22T07:25:26.392Z,78.88
2018-09-22T07:27:53.541Z,78.08
2018-09-22T07:30:20.664Z,78.42
2018-09-22T07:32:47.865Z,78.08
2018-09-22T07:35:15.031Z,78.22
2018-09-22T07:37:42.207Z,78.41
2018-09-22T07:40:09.356Z,78.09
2018-09-22T07:42:36.590Z,78.04
2018-09-22T07:45:03.896Z,77.07
2018-09-22T07:47:31.059Z,77.37
2018-09-22T07:49:58.211Z,76.33
2018-09-22T07:52:25.356Z,76.03
2018-09-22T07:54:52.527Z,76.35
2018-09-22T07:57:19.741Z,75.96
2018-09-22T07:59:46.910Z,76.22
2018-09-22T08:02:14.044Z,75.50
2018-09-22T08:04:41.212Z,75.72
2018-09-22T08:07:13.813Z,75.45
2018-09-22T08:09:40.985Z,74.87
2018-09-22T08:12:08.234Z,75.35
2018-09-22T08:14:35.433Z,75.25
2018-09-22T08:17:02.598Z,73.51
2018-09-22T08:19:29.796Z,73.64
2018-09-22T08:21:57.000Z,73.57
2018-09-22T08:24:24.164Z,73.30
2018-09-22T08:26:51.332Z,73.20
2018-09-22T08:29:18.641Z,73.34
2018-09-22T08:31:45.985Z,72.87
2018-09-22T08:34:13.264Z,72.65
2018-09-22T08:36:40.692Z,72.07
2018-09-22T08:39:09.310Z,72.10
2018-09-22T08:41:36.517Z,72.05
2018-09-22T08:44:03.681Z,72.31
2018-09-22T08:46:30.940Z,71.58
2018-09-22T08:48:58.151Z,72.09
2018-09-22T08:51:25.333Z,71.07
2018-09-22T08:53:52.565Z,70.56
2018-09-22T08:56:19.794Z,70.09
2018-09-22T08:58:47.053Z,71.42
2018-09-22T09:01:14.314Z,69.98
2018-09-22T09:03:41.967Z,68.42
2018-09-22T09:06:09.165Z,68.80
2018-09-22T09:08:36.353Z,68.99
2018-09-22T09:11:03.577Z,68.67
2018-09-22T09:13:30.848Z,68.22
2018-09-22T09:15:58.003Z,67.93
2018-09-22T09:18:25.185Z,67.25
2018-09-22T09:20:52.419Z,66.88
2018-09-22T09:23:19.608Z,66.37
2018-09-22T09:25:46.750Z,66.40
2018-09-22T09:28:13.995Z,67.22
2018-09-22T09:30:41.213Z,67.58
2018-09-22T09:33:08.410Z,65.81
2018-09-22T09:35:35.724Z,66.35
2018-09-22T09:38:02.925Z,66.34
2018-09-22T09:40:30.063Z,65.36
2018-09-22T09:42:57.264Z,65.32
2018-09-22T09:45:24.463Z,65.27
2018-09-22T09:47:51.671Z,64.97
2018-09-22T09:50:18.865Z,65.01
2018-09-22T09:52:46.123Z,63.97
2018-09-22T09:55:13.414Z,64.15
2018-09-22T09:57:40.674Z,64.10
2018-09-22T10:00:08.014Z,64.74
2018-09-22T10:02:35.212Z,64.22
2018-09-22T10:05:02.790Z,63.06
2018-09-22T10:07:30.016Z,62.71
2018-09-22T10:09:57.230Z,63.85
2018-09-22T10:12:24.453Z,62.27
2018-09-22T10:14:51.693Z,62.02
2018-09-22T10:17:19.034Z,60.36
2018-09-22T10:19:46.259Z,60.69
2018-09-22T10:22:13.552Z,60.90
2018-09-22T10:24:40.831Z,60.60
2018-09-22T10:27:08.097Z,61.63
2018-09-22T10:29:35.408Z,61.43
2018-09-22T10:32:02.643Z,62.03
2018-09-22T10:34:29.851Z,61.82
2018-09-22T10:36:57.012Z,61.29
2018-09-22T10:39:24.184Z,58.89
2018-09-22T10:41:51.335Z,59.77
2018-09-22T10:44:18.541Z,58.32
2018-09-22T10:46:45.756Z,58.13
2018-09-22T10:49:13.081Z,59.79
2018-09-22T10:51:40.237Z,58.84
2018-09-22T10:54:07.384Z,59.85
2018-09-22T10:56:34.570Z,57.97
2018-09-22T10:59:01.739Z,56.90
2018-09-22T11:01:28.912Z,57.78
2018-09-22T11:03:56.148Z,57.53
2018-09-22T11:06:23.372Z,58.55
2018-09-22T11:08:50.684Z,58.63
2018-09-22T11:11:17.922Z,58.23
2018-09-22T11:13:45.195Z,56.90
2018-09-22T11:16:12.470Z,56.95
2018-09-22T11:18:39.720Z,56.28
2018-09-22T11:21:06.928Z,55.94
2018-09-22T11:23:34.137Z,57.00
2018-09-22T11:26:08.174Z,56.44
2018-09-22T11:28:35.400Z,56.18
2018-09-22T11:31:02.587Z,57.26
2018-09-22T11:33:29.865Z,56.75
2018-09-22T11:35:57.097Z,57.95
2018-09-22T11:38:24.435Z,57.18
2018-09-22T11:40:51.572Z,56.39
2018-09-22T11:43:18.779Z,56.10
2018-09-22T11:45:45.968Z,56.56
2018-09-22T11:48:13.233Z,56.15
2018-09-22T11:50:40.499Z,54.62
2018-09-22T11:53:07.774Z,54.74
2018-09-22T11:55:35.100Z,55.99
2018-09-22T11:58:02.449Z,55.58
2018-09-22T12:00:29.732Z,54.56
2018-09-22T12:02:57.005Z,55.35
2018-09-22T12:05:24.295Z,53.52
2018-09-22T12:07:51.540Z,52.42
2018-09-22T12:10:18.780Z,50.69
2018-09-22T12:12:46.035Z,50.91
2018-09-22T12:15:13.292Z,51.76
2018-09-22T12:17:40.544Z,50.74
2018-09-22T12:20:07.882Z,51.19
2018-09-22T12:22:35.230Z,53.01
2018-09-22T12:25:02.689Z,53.06
2018-09-22T12:27:29.964Z,53.33
2018-09-22T12:29:57.220Z,52.73
2018-09-22T12:32:25.460Z,49.99
2018-09-22T12:34:52.696Z,52.05
2018-09-22T12:37:19.918Z,51.50
2018-09-22T12:39:47.143Z,50.81
2018-09-22T12:42:14.344Z,52.55
2018-09-22T12:44:41.538Z,53.92
2018-09-22T12:47:08.702Z,53.74
2018-09-22T12:49:35.948Z,54.24
2018-09-22T12:52:03.170Z,54.58
2018-09-22T12:54:30.398Z,54.70
2018-09-22T12:56:57.551Z,52.65
2018-09-22T12:59:25.012Z,50.52
2018-09-22T13:01:52.213Z,48.25
2018-09-22T13:04:19.432Z,49.32
2018-09-22T13:06:46.643Z,49.44
2018-09-22T13:09:13.892Z,50.06
2018-09-22T13:11:41.129Z,49.09
2018-09-22T13:14:08.420Z,49.89
2018-09-22T13:16:35.656Z,52.15
2018-09-22T13:19:02.835Z,51.93
2018-09-22T13:21:30.123Z,51.72
2018-09-22T13:23:57.372Z,52.48
2018-09-22T13:26:24.569Z,52.77
2018-09-22T13:28:51.817Z,52.87
2018-09-22T13:31:19.005Z,52.76
2018-09-22T13:33:46.212Z,52.19
2018-09-22T13:36:13.368Z,50.59
2018-09-22T13:38:40.688Z,51.68
2018-09-22T13:41:07.822Z,51.10
2018-09-22T13:43:34.991Z,50.32
2018-09-22T13:46:02.177Z,51.23
2018-09-22T13:48:29.436Z,51.19
2018-09-22T13:50:56.699Z,50.57
2018-09-22T13:53:23.841Z,49.59
2018-09-22T13:55:51.045Z,50.70
2018-09-22T13:58:18.277Z,49.53
2018-09-22T14:00:45.422Z,49.77
2018-09-22T14:03:12.621Z,50.92
2018-09-22T14:05:39.922Z,49.80
2018-09-22T14:08:14.001Z,49.15
2018-09-22T14:10:41.236Z,49.00
2018-09-22T14:13:08.496Z,51.59
2018-09-22T14:15:35.681Z,50.51
2018-09-22T14:18:02.898Z,48.90
2018-09-22T14:20:30.151Z,49.76
2018-09-22T14:22:57.336Z,49.67
2018-09-22T14:25:24.517Z,49.33
2018-09-22T14:27:51.972Z,50.21
2018-09-22T14:30:19.180Z,49.92
2018-09-22T14:32:46.432Z,49.69
2018-09-22T14:35:13.680Z,52.30
2018-09-22T14:37:40.931Z,50.65
2018-09-22T14:40:08.279Z,51.13
2018-09-22T14:42:35.477Z,50.95
2018-09-22T14:45:02.681Z,49.99
2018-09-22T14:47:29.884Z,50.94
2018-09-22T14:49:57.087Z,51.17
2018-09-22T14:52:24.248Z,50.37
2018-09-22T14:54:51.455Z,50.53
2018-09-22T14:57:18.647Z,49.49
2018-09-22T14:59:45.896Z,49.61
2018-09-22T15:02:13.130Z,49.86
2018-09-22T15:04:40.381Z,50.55
2018-09-22T15:07:07.577Z,50.93
2018-09-22T15:09:34.741Z,51.08
2018-09-22T15:12:01.935Z,50.59
2018-09-22T15:14:29.156Z,50.93
2018-09-22T15:16:56.728Z,50.96
2018-09-22T15:19:23.953Z,51.39
2018-09-22T15:21:51.177Z,51.19
2018-09-22T15:24:18.377Z,51.06
2018-09-22T15:26:45.638Z,51.30
2018-09-22T15:29:12.885Z,51.39
2018-09-22T15:31:40.089Z,52.26
2018-09-22T15:34:07.280Z,51.63
2018-09-22T15:36:34.464Z,52.12
2018-09-22T15:39:01.827Z,52.13
2018-09-22T15:41:29.011Z,51.71
2018-09-22T15:43:56.203Z,52.25
2018-09-22T15:46:23.404Z,51.62
2018-09-22T15:48:50.583Z,51.73
2018-09-22T15:51:17.931Z,51.49
2018-09-22T15:53:45.153Z,52.25
2018-09-22T15:56:12.389Z,51.62
2018-09-22T15:58:39.686Z,52.05
2018-09-22T16:01:06.895Z,54.97
2018-09-22T16:03:34.149Z,54.07
2018-09-22T16:06:01.405Z,52.99
2018-09-22T16:08:28.686Z,54.01
2018-09-22T16:10:55.830Z,55.74
2018-09-22T16:13:23.145Z,55.07
2018-09-22T16:15:50.363Z,55.65
2018-09-22T16:18:17.658Z,56.39
2018-09-22T16:20:44.910Z,53.16
2018-09-22T16:23:12.130Z,54.02
2018-09-22T16:25:39.408Z,58.13
2018-09-22T16:28:06.671Z,60.18
2018-09-22T16:30:34.004Z,59.40
2018-09-22T16:33:01.368Z,59.43
2018-09-22T16:35:35.430Z,57.68
2018-09-22T16:38:02.742Z,53.24
2018-09-22T16:40:30.016Z,54.56
2018-09-22T16:42:57.343Z,57.71
2018-09-22T16:45:24.609Z,59.42
2018-09-22T16:47:51.886Z,54.13
2018-09-22T16:50:19.173Z,55.95
2018-09-22T16:52:46.403Z,55.06
2018-09-22T16:55:13.701Z,56.95
2018-09-22T16:57:40.959Z,62.34
2018-09-22T17:00:08.300Z,65.25
2018-09-22T17:02:35.640Z,67.46
2018-09-22T17:05:04.744Z,67.15
2018-09-22T17:07:32.077Z,67.18
2018-09-22T17:09:59.345Z,67.11
2018-09-22T17:12:26.602Z,67.47
2018-09-22T17:14:53.955Z,67.01
2018-09-22T17:17:21.302Z,68.84
2018-09-22T17:19:48.584Z,70.34
2018-09-22T17:22:15.906Z,71.63
2018-09-22T17:24:43.216Z,71.00
2018-09-22T17:27:10.521Z,71.65
2018-09-22T17:29:37.820Z,71.33
2018-09-22T17:32:05.152Z,73.64
2018-09-22T17:34:32.509Z,74.30
2018-09-22T17:36:59.831Z,74.42
2018-09-22T17:39:27.138Z,71.18
2018-09-22T17:41:54.500Z,70.84
2018-09-22T17:44:21.843Z,72.33
2018-09-22T17:46:49.122Z,72.67
2018-09-22T17:49:16.371Z,71.61
2018-09-22T17:51:43.629Z,71.79
2018-09-22T17:54:10.944Z,72.21
2018-09-22T17:56:38.329Z,73.05
2018-09-22T17:59:05.911Z,72.31
2018-09-22T18:01:33.253Z,71.20
2018-09-22T18:04:00.559Z,70.94
2018-09-22T18:06:27.806Z,71.33
2018-09-22T18:08:55.067Z,70.39
2018-09-22T18:11:22.317Z,70.40
2018-09-22T18:13:49.588Z,73.25
2018-09-22T18:16:16.861Z,75.89
2018-09-22T18:18:44.312Z,77.89
2018-09-22T18:21:11.600Z,77.41
2018-09-22T18:23:38.875Z,76.24
2018-09-22T18:26:06.119Z,76.86
2018-09-22T18:28:33.344Z,76.19
2018-09-22T18:31:00.534Z,76.23
2018-09-22T18:33:27.804Z,76.53
2018-09-22T18:35:55.044Z,76.82
2018-09-22T18:38:22.298Z,78.19
2018-09-22T18:40:49.551Z,79.47
2018-09-22T18:43:16.880Z,78.33
2018-09-22T18:45:44.216Z,78.44
2018-09-22T18:48:11.481Z,79.76
2018-09-22T18:50:38.800Z,78.32
2018-09-22T18:53:06.199Z,76.85
2018-09-22T18:55:34.490Z,79.79
2018-09-22T18:58:01.798Z,78.74
2018-09-22T19:00:29.095Z,80.70
2018-09-22T19:02:56.391Z,81.00
2018-09-22T19:05:23.705Z,78.79
2018-09-22T19:07:50.953Z,81.15
2018-09-22T19:10:18.169Z,82.88
2018-09-22T19:12:45.458Z,83.14
2018-09-22T19:15:24.125Z,81.66
2018-09-22T19:17:57.194Z,80.39
2018-09-22T19:20:35.130Z,81.31
2018-09-22T19:23:06.795Z,81.68
2018-09-22T19:25:36.345Z,86.19
2018-09-22T19:28:06.933Z,87.04
2018-09-22T19:30:42.649Z,83.89
2018-09-22T19:33:28.501Z,84.11
2018-09-22T19:36:02.957Z,84.53
2018-09-22T19:38:34.774Z,82.70
2018-09-22T19:41:06.702Z,83.41
2018-09-22T19:44:10.483Z,81.36
2018-09-22T19:46:58.085Z,85.83
2018-09-22T19:49:27.940Z,88.15
2018-09-22T19:51:59.816Z,87.92
2018-09-22T19:54:27.059Z,86.27
2018-09-22T19:56:54.260Z,86.30
2018-09-22T19:59:21.501Z,85.59
2018-09-22T20:01:48.847Z,86.52
2018-09-22T20:04:16.065Z,87.48
2018-09-22T20:06:43.283Z,87.54
2018-09-22T20:09:10.445Z,86.06
2018-09-22T20:11:37.663Z,88.39
2018-09-22T20:14:04.833Z,88.26
2018-09-22T20:16:32.036Z,87.82
2018-09-22T20:18:59.229Z,88.79
2018-09-22T20:21:26.439Z,88.42
2018-09-22T20:24:00.444Z,88.27
2018-09-22T20:26:27.732Z,88.54
2018-09-22T20:28:54.931Z,88.07
2018-09-22T20:31:22.168Z,88.15
2018-09-22T20:33:49.492Z,88.74
2018-09-22T20:36:16.768Z,85.87
2018-09-22T20:38:43.990Z,85.07
2018-09-22T20:41:11.228Z,85.95
2018-09-22T20:43:38.457Z,84.45
2018-09-22T20:46:05.708Z,83.66
2018-09-22T20:48:32.905Z,83.96
2018-09-22T20:51:00.168Z,82.21
2018-09-22T20:53:27.440Z,84.81
2018-09-22T20:55:54.671Z,84.21
2018-09-22T20:58:21.864Z,84.98
2018-09-22T21:00:49.103Z,83.05
2018-09-22T21:03:16.319Z,81.36
2018-09-22T21:05:43.484Z,81.38
2018-09-22T21:08:10.798Z,82.20
2018-09-22T21:10:38.095Z,83.22
2018-09-22T21:13:05.340Z,82.26
2018-09-22T21:15:32.529Z,82.08
2018-09-22T21:17:59.732Z,83.38
2018-09-22T21:20:26.952Z,85.87
2018-09-22T21:22:54.215Z,88.34
2018-09-22T21:25:21.370Z,86.53
2018-09-22T21:27:48.654Z,85.58
2018-09-22T21:30:15.870Z,87.20
2018-09-22T21:32:43.100Z,86.82
2018-09-22T21:35:10.349Z,85.34
2018-09-22T21:37:37.537Z,87.16
2018-09-22T21:40:04.874Z,85.83
2018-09-22T21:42:32.055Z,88.10
2018-09-22T21:44:59.242Z,88.14
2018-09-22T21:47:26.508Z,87.05
2018-09-22T21:49:53.688Z,85.48
2018-09-22T21:52:20.900Z,85.37
2018-09-22T21:54:48.204Z,86.18
2018-09-22T21:57:15.411Z,87.80
2018-09-22T21:59:42.594Z,85.54
2018-09-22T22:02:09.769Z,85.08
2018-09-22T22:04:36.975Z,89.95
2018-09-22T22:07:04.210Z,87.68
2018-09-22T22:09:31.358Z,87.62
2018-09-22T22:11:58.539Z,88.32
2018-09-22T22:14:25.710Z,86.70
2018-09-22T22:16:52.921Z,87.04
2018-09-22T22:19:20.113Z,86.76
2018-09-22T22:21:47.344Z,80.22
2018-09-22T22:24:14.524Z,78.83
2018-09-22T22:26:41.755Z,82.12
2018-09-22T22:29:09.025Z,82.29
2018-09-22T22:31:36.250Z,83.08
2018-09-22T22:34:03.481Z,82.88
2018-09-22T22:36:30.696Z,84.84
2018-09-22T22:38:57.839Z,84.31
2018-09-22T22:41:25.084Z,84.10
2018-09-22T22:43:52.274Z,83.31
2018-09-22T22:46:19.473Z,83.34
2018-09-22T22:48:46.601Z,81.47
2018-09-22T22:51:13.800Z,75.66
2018-09-22T22:53:40.988Z,77.02
2018-09-22T22:56:08.289Z,78.26
2018-09-22T22:58:35.488Z,77.40
2018-09-22T23:01:02.700Z,76.58
2018-09-22T23:03:29.900Z,76.94
2018-09-22T23:05:57.078Z,76.52
2018-09-22T23:08:24.289Z,73.50
2018-09-22T23:10:51.432Z,74.94
2018-09-22T23:13:18.616Z,76.48
2018-09-22T23:15:45.804Z,78.72
2018-09-22T23:18:13.013Z,77.04
2018-09-22T23:20:40.193Z,74.43
2018-09-22T23:23:07.409Z,73.30
2018-09-22T23:25:35.196Z,73.52
2018-09-22T23:28:02.580Z,74.66
2018-09-22T23:30:29.765Z,73.47
2018-09-22T23:32:56.936Z,74.77
2018-09-22T23:35:24.263Z,77.69
2018-09-22T23:37:51.509Z,80.49
2018-09-22T23:40:18.692Z,83.30
2018-09-22T23:42:45.860Z,85.98
2018-09-22T23:45:13.005Z,85.27
2018-09-22T23:47:40.191Z,84.78
2018-09-22T23:50:07.357Z,84.78
2018-09-22T23:52:34.576Z,84.02
2018-09-22T23:55:01.841Z,84.01
2018-09-22T23:57:28.988Z,82.09
2018-09-22T23:59:56.144Z,82.55
